Time;durP1;ratioP1;P1;durP2;ratioP2;P2;SDS_P1;SDS_P2;PMS_P1;PMS_P2;Temp;Humidity;BMP_temperature;BMP_pressure;BME280_temperature;BME280_humidity;BME280_pressure;Samples;Min_cycle;Max_cycle;Signal;HPM_P1;HPM_P2
2022/09/22 00:01:20;;;;;;;3.60;3.03;;;;;;;16.66;44.13;100383.78;4156821;28;20236;-30
2022/09/22 00:03:22;;;;;;;5.10;3.53;;;;;;;16.57;43.84;100404.50;4154893;28;20323;-32
2022/09/22 00:05:30;;;;;;;4.20;3.17;;;;;;;16.44;43.93;100410.47;4153144;28;20258;-32
2022/09/22 00:07:31;;;;;;;3.70;3.10;;;;;;;16.26;44.33;100426.06;4156647;28;20656;-30
2022/09/22 00:09:40;;;;;;;5.03;3.10;;;;;;;16.13;44.76;100435.53;4152045;28;20874;-31
2022/09/22 00:11:44;;;;;;;3.20;2.90;;;;;;;16.20;44.31;100422.25;4155526;28;20621;-36
2022/09/22 00:13:59;;;;;;;3.20;2.90;;;;;;;15.57;45.41;100491.94;4161773;28;20641;-34
2022/09/22 00:16:09;;;;;;;3.80;2.90;;;;;;;15.89;45.38;100428.47;4156267;28;20255;-32
2022/09/22 00:18:10;;;;;;;2.97;2.70;;;;;;;15.90;45.01;100427.47;4155519;28;20339;-32
2022/09/22 00:20:12;;;;;;;3.20;2.90;;;;;;;15.70;45.40;100448.53;4152829;28;20251;-30
2022/09/22 00:22:21;;;;;;;4.43;3.40;;;;;;;15.75;45.10;100439.97;4156149;28;20236;-35
2022/09/22 00:24:24;;;;;;;3.50;3.20;;;;;;;15.88;44.83;100434.00;4157407;28;20383;-34
2022/09/22 00:26:26;;;;;;;5.43;3.23;;;;;;;16.05;44.14;100399.91;4151091;28;20717;-30
2022/09/22 00:28:39;;;;;;;3.27;2.83;;;;;;;15.75;44.49;100434.63;4162072;28;20248;-32
2022/09/22 00:30:41;;;;;;;3.83;2.90;;;;;;;16.04;44.24;100388.31;4155394;28;20320;-30
2022/09/22 00:32:50;;;;;;;3.93;2.93;;;;;;;16.08;44.13;100378.06;4156014;28;20259;-32
2022/09/22 00:34:58;;;;;;;3.33;3.03;;;;;;;16.05;44.43;100398.03;4157173;28;20612;-31
2022/09/22 00:36:59;;;;;;;3.70;3.10;;;;;;;15.70;45.24;100416.38;4153822;28;20233;-33
2022/09/22 00:39:01;;;;;;;5.43;3.30;;;;;;;15.89;44.58;100414.25;4156600;28;20303;-31
2022/09/22 00:41:17;;;;;;;6.33;3.20;;;;;;;16.08;44.54;100378.91;4155810;28;20542;-30
2022/09/22 00:43:27;;;;;;;3.20;2.90;;;;;;;16.16;44.32;100360.06;4156129;28;20263;-33
2022/09/22 00:45:38;;;;;;;3.47;3.17;;;;;;;15.65;45.08;100410.69;4155315;28;20315;-32
2022/09/22 00:47:46;;;;;;;3.53;3.23;;;;;;;15.46;45.17;100446.78;4153097;28;20228;-30
2022/09/22 00:49:55;;;;;;;5.47;3.50;;;;;;;15.67;45.35;100406.00;4151772;28;20228;-32
2022/09/22 00:51:56;;;;;;;4.07;3.10;;;;;;;15.32;45.25;100448.34;4132908;28;20312;-32
2022/09/22 00:54:10;;;;;;;3.97;3.20;;;;;;;15.34;45.43;100437.44;4155014;28;20263;-34
2022/09/22 00:56:19;;;;;;;3.80;3.30;;;;;;;15.67;45.13;100381.88;4153456;28;20518;-31
2022/09/22 00:58:31;;;;;;;7.13;3.57;;;;;;;15.16;45.80;100445.72;4149823;28;20296;-31
2022/09/22 01:00:40;;;;;;;3.30;3.00;;;;;;;15.33;45.27;100419.72;4156101;28;20371;-31
2022/09/22 01:02:47;;;;;;;3.67;3.20;;;;;;;15.20;45.81;100433.66;4155977;28;20323;-31
2022/09/22 01:04:51;;;;;;;4.83;3.13;;;;;;;15.03;45.47;100441.72;4151906;28;20315;-31
2022/09/22 01:07:01;;;;;;;4.50;3.40;;;;;;;14.68;46.22;100470.56;4138343;28;20241;-30
2022/09/22 01:09:03;;;;;;;3.80;3.47;;;;;;;14.10;47.51;100506.28;4150885;28;20245;-30
2022/09/22 01:11:06;;;;;;;3.70;3.40;;;;;;;14.27;46.93;100478.53;4154034;28;20276;-35
2022/09/22 01:13:48;;;;;;;4.70;3.33;;;;;;;14.45;47.16;100416.03;4150680;28;20663;-31
2022/09/22 01:16:02;;;;;;;3.97;3.40;;;;;;;14.00;47.75;100468.97;4153030;28;20643;-30
2022/09/22 01:18:11;;;;;;;4.57;3.70;;;;;;;14.42;47.12;100400.31;4156409;28;20264;-30
2022/09/22 01:20:28;;;;;;;4.27;3.13;;;;;;;14.44;47.11;100398.31;4152942;28;20312;-31
2022/09/22 01:22:46;;;;;;;3.50;3.20;;;;;;;14.47;47.28;100388.09;4154462;28;20233;-31
2022/09/22 01:25:25;;;;;;;3.93;3.10;;;;;;;14.74;46.65;100350.41;4153754;28;20922;-32
2022/09/22 01:28:01;;;;;;;4.23;3.33;;;;;;;14.68;46.92;100339.41;4151145;28;20279;-32
2022/09/22 01:30:17;;;;;;;5.53;3.70;;;;;;;14.32;47.33;100395.97;4153608;28;20244;-33
2022/09/22 01:32:21;;;;;;;3.90;3.30;;;;;;;13.89;48.33;100448.75;4153467;28;20274;-31
2022/09/22 01:34:45;;;;;;;4.27;3.40;;;;;;;14.29;47.80;100374.91;4151925;28;21045;-30
2022/09/22 01:37:09;;;;;;;4.87;3.30;;;;;;;14.18;48.01;100396.66;4152183;28;20229;-31
2022/09/22 01:39:17;;;;;;;4.43;3.90;;;;;;;14.45;47.41;100355.31;4151532;28;20225;-36
2022/09/22 01:41:43;;;;;;;3.77;3.30;;;;;;;14.20;47.69;100391.13;4154257;28;20236;-34
2022/09/22 01:43:57;;;;;;;6.43;3.30;;;;;;;14.32;47.71;100373.72;4154326;28;20229;-32
2022/09/22 01:46:02;;;;;;;4.80;3.63;;;;;;;14.48;47.34;100346.13;4155157;28;20293;-31
2022/09/22 01:48:08;;;;;;;4.53;3.50;;;;;;;13.78;48.54;100430.31;4155703;28;20639;-31
2022/09/22 01:50:26;;;;;;;5.10;3.87;;;;;;;14.12;47.85;100383.94;4155258;28;20784;-31
2022/09/22 01:52:32;;;;;;;4.10;3.50;;;;;;;14.07;48.12;100388.94;4152354;28;20596;-33
2022/09/22 01:54:44;;;;;;;4.60;3.50;;;;;;;14.19;47.87;100370.72;4153753;28;20227;-31
2022/09/22 01:57:02;;;;;;;5.00;3.33;;;;;;;13.77;48.47;100429.47;4148762;28;20437;-34
2022/09/22 01:59:06;;;;;;;3.80;3.50;;;;;;;14.33;47.52;100346.00;4156126;28;20327;-29
2022/09/22 02:01:16;;;;;;;3.30;3.00;;;;;;;14.20;47.80;100359.88;4154907;28;20283;-32
2022/09/22 02:03:59;;;;;;;4.70;3.30;;;;;;;14.65;47.14;100310.28;4151220;28;20306;-30
2022/09/22 02:06:36;;;;;;;4.60;3.70;;;;;;;14.52;47.39;100316.16;4150546;28;20234;-31
2022/09/22 02:09:11;;;;;;;7.10;3.43;;;;;;;14.13;47.60;100388.28;4113394;28;20216;-31
2022/09/22 02:11:20;;;;;;;4.33;3.37;;;;;;;14.68;46.94;100301.91;4154249;28;20395;-31
2022/09/22 02:13:22;;;;;;;3.40;3.03;;;;;;;14.78;46.87;100300.91;4150137;28;20236;-31
2022/09/22 02:17:55;;;;;;;5.47;4.20;;;;;;;14.17;47.74;100370.88;4154547;28;20311;-31
2022/09/22 02:19:57;;;;;;;5.20;3.60;;;;;;;14.62;47.24;100297.25;4153817;28;20263;-32
2022/09/22 02:22:07;;;;;;;3.87;3.47;;;;;;;14.24;47.21;100387.09;4134077;28;20257;-33
2022/09/22 02:24:38;;;;;;;4.67;3.77;;;;;;;14.32;48.22;100299.66;4154617;28;20316;-31
2022/09/22 02:26:40;;;;;;;4.33;3.93;;;;;;;13.96;48.55;100360.72;4151041;28;20558;-31
2022/09/22 02:29:01;;;;;;;4.07;3.60;;;;;;;13.74;48.60;100403.06;4153184;28;20256;-37
2022/09/22 02:31:06;;;;;;;4.93;3.83;;;;;;;13.92;48.77;100354.84;4152221;28;20312;-31
2022/09/22 02:33:34;;;;;;;4.87;3.60;;;;;;;14.86;47.20;100244.66;4152390;28;20289;-31
2022/09/22 02:35:47;;;;;;;5.57;4.10;;;;;;;14.75;47.33;100264.63;4151007;28;20263;-32
2022/09/22 02:38:12;;;;;;;4.70;4.03;;;;;;;13.85;48.68;100375.22;4153926;28;20271;-32
2022/09/22 02:40:31;;;;;;;3.73;3.40;;;;;;;14.17;47.84;100348.66;4149067;28;20292;-31
2022/09/22 02:43:05;;;;;;;4.43;3.77;;;;;;;14.10;48.41;100341.31;4149778;28;20232;-35
2022/09/22 02:45:22;;;;;;;3.63;3.33;;;;;;;13.71;48.95;100381.19;4121238;28;20343;-32
2022/09/22 02:47:36;;;;;;;4.93;3.77;;;;;;;13.69;49.03;100376.00;4149320;28;20252;-31
2022/09/22 02:49:47;;;;;;;4.47;3.93;;;;;;;13.57;49.39;100363.97;4149097;28;20298;-32
2022/09/22 02:51:49;;;;;;;4.70;3.40;;;;;;;13.43;49.86;100361.91;4154934;28;20232;-31
2022/09/22 02:53:51;;;;;;;4.20;3.80;;;;;;;13.42;49.57;100393.13;4153432;28;20266;-31
2022/09/22 02:56:00;;;;;;;3.50;3.20;;;;;;;13.70;48.73;100355.44;4136221;28;20227;-33
2022/09/22 02:58:02;;;;;;;4.80;3.63;;;;;;;13.91;48.91;100302.38;4150647;28;20255;-33
2022/09/22 03:00:05;;;;;;;5.57;3.97;;;;;;;13.81;49.51;100307.03;4152108;28;20906;-32
2022/09/22 03:02:13;;;;;;;4.40;3.70;;;;;;;14.22;47.90;100308.88;4153901;28;20239;-31
2022/09/22 03:04:14;;;;;;;5.43;3.43;;;;;;;13.91;48.40;100334.47;4154470;28;20720;-31
2022/09/22 03:06:16;;;;;;;4.30;3.90;;;;;;;14.30;47.72;100296.31;4154020;28;20262;-32
2022/09/22 03:08:24;;;;;;;4.33;3.93;;;;;;;13.50;49.08;100395.84;4148123;28;20270;-31
2022/09/22 03:10:26;;;;;;;4.83;3.77;;;;;;;12.69;50.08;100493.16;4153141;28;20276;-32
2022/09/22 03:12:27;;;;;;;8.10;4.00;;;;;;;13.57;49.50;100347.94;4152190;28;20267;-34
2022/09/22 03:14:36;;;;;;;4.20;3.80;;;;;;;13.37;49.80;100358.06;4148643;28;20259;-31
2022/09/22 03:16:37;;;;;;;4.30;3.90;;;;;;;13.74;48.83;100317.56;4154657;28;20822;-31
2022/09/22 03:18:39;;;;;;;4.10;3.50;;;;;;;14.10;48.37;100273.63;4153999;28;20236;-34
2022/09/22 03:20:47;;;;;;;3.77;3.43;;;;;;;12.87;49.82;100453.09;4154416;28;20265;-32
2022/09/22 03:22:48;;;;;;;5.20;4.10;;;;;;;13.69;48.85;100335.09;4153869;28;20660;-33
2022/09/22 03:24:50;;;;;;;6.00;4.10;;;;;;;13.39;49.32;100359.56;4155116;28;20286;-34
2022/09/22 03:26:58;;;;;;;4.07;3.57;;;;;;;13.75;48.82;100315.69;4150558;28;20761;-34
2022/09/22 03:29:06;;;;;;;4.27;3.73;;;;;;;13.20;49.85;100400.72;4138010;28;20952;-33
2022/09/22 03:31:07;;;;;;;4.50;3.83;;;;;;;13.66;48.87;100322.06;4150174;28;20492;-31
2022/09/22 03:33:09;;;;;;;5.50;3.70;;;;;;;14.08;48.09;100284.50;4150587;28;20252;-31
2022/09/22 03:35:17;;;;;;;4.57;3.70;;;;;;;14.19;48.01;100261.94;4152306;28;20732;-31
2022/09/22 03:37:26;;;;;;;4.20;3.80;;;;;;;13.11;49.58;100408.84;4147216;28;20808;-32
2022/09/22 03:39:27;;;;;;;5.57;3.90;;;;;;;13.33;49.90;100349.53;4152136;28;20268;-33
2022/09/22 03:41:30;;;;;;;4.33;3.60;;;;;;;13.88;48.40;100317.94;4149878;28;20710;-32
2022/09/22 03:43:38;;;;;;;5.77;4.03;;;;;;;13.91;48.16;100317.59;4152333;28;20330;-33
2022/09/22 03:45:39;;;;;;;4.37;3.97;;;;;;;13.69;48.55;100343.13;4154223;28;20260;-35
2022/09/22 03:47:41;;;;;;;4.17;3.70;;;;;;;13.48;48.93;100371.09;4151846;28;20234;-33
2022/09/22 03:49:49;;;;;;;5.53;4.23;;;;;;;13.71;48.51;100349.94;4149397;28;20252;-33
2022/09/22 03:51:52;;;;;;;4.70;4.27;;;;;;;13.62;48.77;100339.41;4153593;28;20370;-32
2022/09/22 03:53:54;;;;;;;6.23;4.37;;;;;;;13.69;48.33;100343.13;4154228;28;20263;-33
2022/09/22 03:56:11;;;;;;;4.17;3.73;;;;;;;13.74;48.60;100327.41;4153731;28;20235;-32
2022/09/22 03:58:12;;;;;;;4.63;4.03;;;;;;;13.53;48.76;100357.25;4141235;28;20303;-32
2022/09/22 04:00:15;;;;;;;4.83;4.30;;;;;;;13.88;48.42;100312.56;4153202;28;20644;-32
2022/09/22 04:02:23;;;;;;;5.23;3.57;;;;;;;13.66;48.62;100327.41;4156092;28;20216;-32
2022/09/22 04:04:25;;;;;;;4.80;3.80;;;;;;;13.46;48.76;100365.09;4152141;28;20541;-32
2022/09/22 04:06:26;;;;;;;4.37;3.97;;;;;;;13.72;48.62;100318.69;4150714;28;20316;-32
2022/09/22 04:08:34;;;;;;;6.00;4.10;;;;;;;13.76;48.46;100310.19;4154488;28;20254;-33
2022/09/22 04:10:36;;;;;;;5.67;4.23;;;;;;;13.85;48.28;100313.72;4156228;28;20331;-34
2022/09/22 04:12:38;;;;;;;5.67;4.43;;;;;;;13.62;48.83;100332.25;4155484;28;20235;-34
2022/09/22 04:14:46;;;;;;;4.37;3.97;;;;;;;13.88;48.54;100297.38;4157036;28;20238;-32
2022/09/22 04:16:47;;;;;;;7.37;3.80;;;;;;;13.56;48.91;100343.56;4156863;28;20312;-33
2022/09/22 04:18:49;;;;;;;5.17;4.40;;;;;;;12.78;50.22;100440.69;4156729;28;20330;-33
2022/09/22 04:20:58;;;;;;;4.60;4.20;;;;;;;13.46;49.35;100324.19;4149493;28;20274;-32
2022/09/22 04:22:59;;;;;;;4.63;4.13;;;;;;;13.35;49.31;100341.38;4157236;28;20588;-32
2022/09/22 04:25:01;;;;;;;6.57;4.33;;;;;;;13.44;49.02;100336.88;4156270;28;20792;-33
2022/09/22 04:27:09;;;;;;;5.77;4.40;;;;;;;13.51;49.30;100316.53;4154754;28;20248;-32
2022/09/22 04:29:26;;;;;;;5.30;4.20;;;;;;;13.64;48.87;100305.34;4156935;28;20236;-31
2022/09/22 04:31:27;;;;;;;5.00;4.10;;;;;;;13.85;48.54;100280.81;4155439;28;20570;-33
2022/09/22 04:33:36;;;;;;;5.40;4.23;;;;;;;13.10;49.47;100388.50;4146873;28;20260;-34
2022/09/22 04:35:38;;;;;;;6.90;4.23;;;;;;;13.38;49.06;100349.03;4155023;28;20666;-31
2022/09/22 04:37:41;;;;;;;5.80;4.20;;;;;;;13.48;48.98;100325.69;4156579;28;20700;-33
2022/09/22 04:39:49;;;;;;;6.73;4.47;;;;;;;13.35;49.08;100339.53;4151677;28;20327;-34
2022/09/22 04:41:51;;;;;;;7.40;4.20;;;;;;;12.99;49.46;100397.63;4150658;28;20304;-36
2022/09/22 04:43:52;;;;;;;6.63;4.53;;;;;;;13.58;49.12;100294.34;4157489;28;20237;-32
2022/09/22 04:46:00;;;;;;;4.83;4.33;;;;;;;13.19;49.49;100371.50;4156742;28;20259;-33
2022/09/22 04:48:02;;;;;;;4.93;4.17;;;;;;;13.49;48.76;100330.03;4155754;28;20594;-33
2022/09/22 04:50:11;;;;;;;7.17;4.60;;;;;;;13.67;48.62;100307.69;4156793;28;20311;-31
2022/09/22 04:52:13;;;;;;;5.73;4.40;;;;;;;12.89;49.98;100410.25;4157079;28;20235;-31
2022/09/22 04:54:15;;;;;;;4.17;3.80;;;;;;;13.48;49.34;100315.00;4156781;28;20804;-31
2022/09/22 04:56:23;;;;;;;5.17;4.17;;;;;;;12.92;49.94;100386.75;4151343;28;20211;-33
2022/09/22 04:58:25;;;;;;;5.37;4.23;;;;;;;13.98;48.09;100259.78;4156645;28;20360;-34
